Time;durP1;ratioP1;P1;durP2;ratioP2;P2;SDS_P1;SDS_P2;PMS_P1;PMS_P2;Temp;Humidity;BMP_temperature;BMP_pressure;BME280_temperature;BME280_humidity;BME280_pressure;Samples;Min_cycle;Max_cycle;Signal;HPM_P1;HPM_P2
2024/02/10 00:01:46;;;;;;;16.13;9.57;;;;;;;;;;5031779;28;20142;-58
2024/02/10 00:04:14;;;;;;;15.88;7.63;;;;;;;;;;5030166;28;20460;-58
2024/02/10 00:06:40;;;;;;;15.25;8.50;;;;;;;;;;5030472;28;20057;-59
2024/02/10 00:09:09;;;;;;;13.65;7.72;;;;;;;;;;5029207;28;20048;-58
2024/02/10 00:11:34;;;;;;;13.60;7.72;;;;;;;;;;5031649;28;20021;-59
2024/02/10 00:13:59;;;;;;;14.50;7.90;;;;;;;;;;5032326;28;20018;-58
2024/02/10 00:16:26;;;;;;;15.30;8.50;;;;;;;;;;5032926;28;20432;-59
2024/02/10 00:18:52;;;;;;;17.58;8.63;;;;;;;;;;5030028;28;20104;-60
2024/02/10 00:21:20;;;;;;;14.40;7.68;;;;;;;;;;5019146;28;20100;-59
2024/02/10 00:23:47;;;;;;;14.68;7.72;;;;;;;;;;5030556;28;20051;-59
2024/02/10 00:26:12;;;;;;;;;;;;;;;;;;5024848;28;20030;-59
2024/02/10 00:28:38;;;;;;;17.42;7.03;;;;;;;;;;5028753;28;20300;-59
2024/02/10 00:31:04;;;;;;;13.68;7.32;;;;;;;;;;5018191;28;20013;-60
2024/02/10 00:33:30;;;;;;;15.10;7.97;;;;;;;;;;5026893;28;20064;-60
2024/02/10 00:35:55;;;;;;;14.32;7.22;;;;;;;;;;5028381;28;20512;-59
2024/02/10 00:38:21;;;;;;;13.68;7.40;;;;;;;;;;5029430;28;20025;-58
2024/02/10 00:40:48;;;;;;;12.38;7.88;;;;;;;;;;5029508;28;20036;-59
2024/02/10 00:43:13;;;;;;;;;;;;;;;;;;5030719;28;20112;-60
2024/02/10 00:45:39;;;;;;;11.98;7.13;;;;;;;;;;5030175;28;20475;-58
2024/02/10 00:48:05;;;;;;;15.10;8.02;;;;;;;;;;5029193;28;20104;-59
2024/02/10 00:50:30;;;;;;;12.30;6.97;;;;;;;;;;5030207;28;20153;-60
2024/02/10 00:52:55;;;;;;;15.20;8.70;;;;;;;;;;5022750;28;20092;-59
2024/02/10 00:55:30;;;;;;;13.47;6.83;;;;;;;;;;5023823;28;20452;-58
2024/02/10 00:57:55;;;;;;;13.27;6.70;;;;;;;;;;5023595;28;20029;-59
2024/02/10 01:00:21;;;;;;;15.20;7.28;;;;;;;;;;5031096;28;20036;-60
2024/02/10 01:02:47;;;;;;;11.43;6.55;;;;;;;;;;5030497;28;20025;-58
2024/02/10 01:05:12;;;;;;;11.00;6.03;;;;;;;;;;5028719;28;20055;-59
2024/02/10 01:07:39;;;;;;;13.05;7.35;;;;;;;;;;5025229;28;20429;-59
2024/02/10 01:10:06;;;;;;;12.90;6.90;;;;;;;;;;5028443;28;20021;-60
2024/02/10 01:12:31;;;;;;;11.98;7.07;;;;;;;;;;5022370;28;20021;-60
2024/02/10 01:14:58;;;;;;;11.40;6.10;;;;;;;;;;5027967;28;20400;-59
2024/02/10 01:17:24;;;;;;;12.35;6.22;;;;;;;;;;5028583;28;20021;-60
2024/02/10 01:19:50;;;;;;;;;;;;;;;;;;5030016;28;20060;-59
2024/02/10 01:22:29;;;;;;;11.52;6.32;;;;;;;;;;5029366;28;19940;-59
2024/02/10 01:24:57;;;;;;;11.50;6.47;;;;;;;;;;5033968;28;20033;-59
2024/02/10 01:27:26;;;;;;;14.80;6.85;;;;;;;;;;5031757;28;20057;-60
2024/02/10 01:29:52;;;;;;;11.05;5.82;;;;;;;;;;5035296;28;20555;-60
2024/02/10 01:32:20;;;;;;;13.73;6.50;;;;;;;;;;5037167;28;20033;-58
2024/02/10 01:34:47;;;;;;;13.35;6.38;;;;;;;;;;5040996;28;20096;-59
2024/02/10 01:37:17;;;;;;;12.35;6.50;;;;;;;;;;5028361;28;20026;-58
2024/02/10 01:39:43;;;;;;;12.93;6.65;;;;;;;;;;5019452;28;20052;-59
2024/02/10 01:42:09;;;;;;;10.85;5.80;;;;;;;;;;5021156;28;20053;-58
2024/02/10 01:44:34;;;;;;;10.02;5.00;;;;;;;;;;5021412;28;20447;-58
2024/02/10 01:47:01;;;;;;;11.67;6.47;;;;;;;;;;5023731;28;20021;-59
2024/02/10 01:49:28;;;;;;;11.65;6.00;;;;;;;;;;5023185;28;20029;-59
2024/02/10 01:51:53;;;;;;;11.45;5.80;;;;;;;;;;5011621;28;20026;-59
2024/02/10 01:54:19;;;;;;;10.90;5.23;;;;;;;;;;5025075;28;20018;-59
2024/02/10 01:56:45;;;;;;;10.63;5.85;;;;;;;;;;5027636;28;21004;-60
2024/02/10 01:59:10;;;;;;;13.73;6.80;;;;;;;;;;5028617;28;20018;-59
2024/02/10 02:01:36;;;;;;;12.48;6.15;;;;;;;;;;5012617;28;20069;-59
2024/02/10 02:04:02;;;;;;;15.82;6.50;;;;;;;;;;5025520;28;20025;-58
2024/02/10 02:06:30;;;;;;;12.80;5.70;;;;;;;;;;5015552;28;20018;-58
2024/02/10 02:08:55;;;;;;;11.57;6.60;;;;;;;;;;5028904;28;20132;-59
2024/02/10 02:11:21;;;;;;;12.15;6.75;;;;;;;;;;5029850;28;20025;-58
2024/02/10 02:13:49;;;;;;;10.95;5.68;;;;;;;;;;5027793;28;20492;-59
2024/02/10 02:16:15;;;;;;;14.63;7.13;;;;;;;;;;5021142;28;20389;-59
2024/02/10 02:18:43;;;;;;;10.50;5.78;;;;;;;;;;5024391;28;20108;-58
2024/02/10 02:21:08;;;;;;;14.07;6.00;;;;;;;;;;5031999;28;20435;-59
2024/02/10 02:23:34;;;;;;;15.77;7.20;;;;;;;;;;5031766;28;20022;-58
2024/02/10 02:26:00;;;;;;;15.00;6.35;;;;;;;;;;5027990;28;20026;-58
2024/02/10 02:28:25;;;;;;;12.60;6.87;;;;;;;;;;5031497;28;20025;-59
2024/02/10 02:30:50;;;;;;;12.77;6.68;;;;;;;;;;5029015;28;20467;-60
2024/02/10 02:33:15;;;;;;;12.10;6.18;;;;;;;;;;5032319;28;20377;-58
2024/02/10 02:35:43;;;;;;;14.20;6.80;;;;;;;;;;5033053;28;20049;-61
2024/02/10 02:38:08;;;;;;;15.07;7.47;;;;;;;;;;5018808;28;20026;-59
2024/02/10 02:40:33;;;;;;;16.92;7.32;;;;;;;;;;5030350;28;20033;-58
2024/02/10 02:43:02;;;;;;;14.17;7.23;;;;;;;;;;5032870;28;20045;-59
2024/02/10 02:45:28;;;;;;;14.32;6.60;;;;;;;;;;5030688;28;20080;-60
2024/02/10 02:47:56;;;;;;;12.35;6.43;;;;;;;;;;5029147;28;20033;-60
2024/02/10 02:50:24;;;;;;;17.92;8.13;;;;;;;;;;5024298;28;20028;-60
2024/02/10 02:52:49;;;;;;;12.77;5.72;;;;;;;;;;5018408;28;20013;-60
2024/02/10 02:55:14;;;;;;;12.23;6.47;;;;;;;;;;5019700;28;20511;-60
2024/02/10 02:57:40;;;;;;;9.52;5.22;;;;;;;;;;5030338;28;20029;-58
2024/02/10 03:00:05;;;;;;;10.93;5.50;;;;;;;;;;5024467;28;20670;-58
2024/02/10 03:02:32;;;;;;;10.07;4.95;;;;;;;;;;5013494;28;20504;-59
2024/02/10 03:04:57;;;;;;;11.52;5.53;;;;;;;;;;5028527;28;20464;-59
2024/02/10 03:07:22;;;;;;;11.32;5.60;;;;;;;;;;5033360;28;20049;-59
2024/02/10 03:09:48;;;;;;;10.55;5.45;;;;;;;;;;5033555;28;20025;-58
2024/02/10 03:12:14;;;;;;;13.77;6.55;;;;;;;;;;5028970;28;20029;-60
2024/02/10 03:14:40;;;;;;;9.48;5.05;;;;;;;;;;5032852;28;20049;-59
2024/02/10 03:17:06;;;;;;;11.00;5.57;;;;;;;;;;5031742;28;20420;-59
2024/02/10 03:19:32;;;;;;;11.77;5.63;;;;;;;;;;5020833;28;20034;-59
2024/02/10 03:22:00;;;;;;;10.75;5.90;;;;;;;;;;5029615;28;20071;-59
2024/02/10 03:24:28;;;;;;;11.90;5.97;;;;;;;;;;5022055;28;20434;-59
2024/02/10 03:26:53;;;;;;;11.20;5.82;;;;;;;;;;5028989;28;20025;-60
2024/02/10 03:29:19;;;;;;;9.55;5.40;;;;;;;;;;5030097;28;20042;-59
2024/02/10 03:31:44;;;;;;;10.77;5.45;;;;;;;;;;5028199;28;20036;-59
2024/02/10 03:34:09;;;;;;;9.50;5.22;;;;;;;;;;5030866;28;20037;-58
2024/02/10 03:36:35;;;;;;;12.00;5.97;;;;;;;;;;5031168;28;20416;-59
2024/02/10 03:39:03;;;;;;;10.73;5.47;;;;;;;;;;5025670;28;20021;-59
2024/02/10 03:41:29;;;;;;;10.85;5.13;;;;;;;;;;5031018;28;20033;-59
2024/02/10 03:43:54;;;;;;;11.70;5.65;;;;;;;;;;5018078;28;20017;-60
2024/02/10 03:46:21;;;;;;;12.88;5.90;;;;;;;;;;5030548;28;20023;-60
2024/02/10 03:48:47;;;;;;;12.45;6.15;;;;;;;;;;5022750;28;20028;-58
2024/02/10 03:51:12;;;;;;;12.88;5.90;;;;;;;;;;5025698;28;20021;-59
2024/02/10 03:53:38;;;;;;;12.93;6.60;;;;;;;;;;5029866;28;20516;-59
2024/02/10 03:56:04;;;;;;;12.48;5.93;;;;;;;;;;5030433;28;20026;-59
2024/02/10 03:58:29;;;;;;;14.88;7.18;;;;;;;;;;5028164;28;20025;-58
2024/02/10 04:00:55;;;;;;;13.43;7.05;;;;;;;;;;5011059;28;20057;-58
2024/02/10 04:03:21;;;;;;;12.73;6.07;;;;;;;;;;5012223;28;20022;-59
2024/02/10 04:05:46;;;;;;;11.60;6.43;;;;;;;;;;5029936;28;20060;-59
2024/02/10 04:08:11;;;;;;;14.23;6.35;;;;;;;;;;5028794;28;20029;-59
2024/02/10 04:10:37;;;;;;;15.17;6.33;;;;;;;;;;5030566;28;20029;-59
2024/02/10 04:13:02;;;;;;;15.33;6.97;;;;;;;;;;5029008;28;20018;-59
2024/02/10 04:15:27;;;;;;;13.30;6.80;;;;;;;;;;5029502;28;20447;-58
2024/02/10 04:17:53;;;;;;;13.07;5.97;;;;;;;;;;5030417;28;20514;-59
2024/02/10 04:20:23;;;;;;;12.48;6.15;;;;;;;;;;5031780;28;21001;-59
2024/02/10 04:22:48;;;;;;;14.25;6.28;;;;;;;;;;5021849;28;20014;-57
2024/02/10 04:25:14;;;;;;;15.27;6.20;;;;;;;;;;5032912;28;20048;-58
2024/02/10 04:27:40;;;;;;;12.50;6.38;;;;;;;;;;5036149;28;20025;-60
2024/02/10 04:30:06;;;;;;;13.73;6.50;;;;;;;;;;5031342;28;20049;-59
2024/02/10 04:32:31;;;;;;;12.60;6.78;;;;;;;;;;5030274;28;20541;-59
2024/02/10 04:34:57;;;;;;;14.77;6.35;;;;;;;;;;5017893;28;20113;-59
2024/02/10 04:37:22;;;;;;;12.43;6.40;;;;;;;;;;5031768;28;20030;-60
2024/02/10 04:39:47;;;;;;;14.43;5.93;;;;;;;;;;5026155;28;20100;-58
2024/02/10 04:42:12;;;;;;;15.80;7.50;;;;;;;;;;5024571;28;20555;-59
2024/02/10 04:44:38;;;;;;;14.38;6.05;;;;;;;;;;5026858;28;20415;-59
2024/02/10 04:47:03;;;;;;;12.38;6.80;;;;;;;;;;5030045;28;20025;-59
2024/02/10 04:49:28;;;;;;;13.20;6.30;;;;;;;;;;5030017;28;21930;-59
2024/02/10 04:51:53;;;;;;;15.10;7.60;;;;;;;;;;5032039;28;20037;-58
2024/02/10 04:54:19;;;;;;;14.90;7.67;;;;;;;;;;5028627;28;20071;-59
2024/02/10 04:56:44;;;;;;;16.93;8.20;;;;;;;;;;5029088;28;20028;-59
2024/02/10 04:59:18;;;;;;;18.08;8.88;;;;;;;;;;5023203;28;20025;-59
2024/02/10 05:01:43;;;;;;;17.92;8.75;;;;;;;;;;5027765;28;20031;-58
2024/02/10 05:04:11;;;;;;;14.30;8.15;;;;;;;;;;5029320;28;20018;-58
2024/02/10 05:06:37;;;;;;;18.55;8.18;;;;;;;;;;5029942;28;20040;-60
2024/02/10 05:09:03;;;;;;;15.80;7.78;;;;;;;;;;5028366;28;20559;-59
2024/02/10 05:11:31;;;;;;;17.17;8.15;;;;;;;;;;5030172;28;20473;-60
2024/02/10 05:13:57;;;;;;;15.45;7.93;;;;;;;;;;5025630;28;20026;-59
2024/02/10 05:16:22;;;;;;;16.98;8.75;;;;;;;;;;5027740;28;20017;-60
2024/02/10 05:18:48;;;;;;;14.85;7.60;;;;;;;;;;5028739;28;20022;-59
2024/02/10 05:21:16;;;;;;;16.77;8.77;;;;;;;;;;5028033;28;20083;-58
2024/02/10 05:23:45;;;;;;;19.63;8.52;;;;;;;;;;5032675;28;20022;-59
2024/02/10 05:26:10;;;;;;;15.48;7.45;;;;;;;;;;5031110;28;20444;-60
2024/02/10 05:28:35;;;;;;;14.27;7.57;;;;;;;;;;5032441;28;20009;-59
2024/02/10 05:31:04;;;;;;;16.67;8.00;;;;;;;;;;5040870;28;20013;-59
2024/02/10 05:33:29;;;;;;;14.05;6.75;;;;;;;;;;5022271;28;20536;-59
2024/02/10 05:35:54;;;;;;;15.25;7.93;;;;;;;;;;5029264;28;20086;-58
2024/02/10 05:38:21;;;;;;;15.43;7.73;;;;;;;;;;5029563;28;20021;-59
2024/02/10 05:40:46;;;;;;;13.98;6.85;;;;;;;;;;5030258;28;20504;-58
2024/02/10 05:43:13;;;;;;;18.13;8.40;;;;;;;;;;5029732;28;20029;-58
2024/02/10 05:45:38;;;;;;;;;;;;;;;;;;5030141;28;20030;-61
2024/02/10 05:48:04;;;;;;;15.90;6.87;;;;;;;;;;5029024;28;19924;-60
2024/02/10 05:50:29;;;;;;;17.13;7.93;;;;;;;;;;5021657;28;20033;-59
2024/02/10 05:52:57;;;;;;;15.80;7.40;;;;;;;;;;5032959;28;20014;-60
2024/02/10 05:55:26;;;;;;;14.45;6.53;;;;;;;;;;5034466;28;20037;-59
2024/02/10 05:57:55;;;;;;;19.40;8.57;;;;;;;;;;5029287;28;20013;-59
2024/02/10 06:00:21;;;;;;;16.05;8.25;;;;;;;;;;5025578;28;20010;-59
2024/02/10 06:02:47;;;;;;;15.45;6.93;;;;;;;;;;5033725;28;20422;-62
2024/02/10 06:05:13;;;;;;;16.05;7.72;;;;;;;;;;5031788;28;20034;-59
2024/02/10 06:07:38;;;;;;;14.63;7.70;;;;;;;;;;5029098;28;20014;-60
2024/02/10 06:10:12;;;;;;;14.80;7.88;;;;;;;;;;5022049;28;20053;-59
2024/02/10 06:12:38;;;;;;;16.00;7.15;;;;;;;;;;5020326;28;20021;-58
2024/02/10 06:15:04;;;;;;;13.52;7.50;;;;;;;;;;5030383;28;20033;-58
2024/02/10 06:17:29;;;;;;;14.70;6.82;;;;;;;;;;5025894;28;20416;-58
2024/02/10 06:19:55;;;;;;;18.58;8.43;;;;;;;;;;5027530;28;20079;-59
2024/02/10 06:22:20;;;;;;;16.23;7.38;;;;;;;;;;5030169;28;20151;-58
2024/02/10 06:24:45;;;;;;;14.70;6.95;;;;;;;;;;5033424;28;20071;-59
2024/02/10 06:27:10;;;;;;;16.80;7.80;;;;;;;;;;5025195;28;20555;-59
2024/02/10 06:29:35;;;;;;;15.77;7.55;;;;;;;;;;5026875;28;20512;-59
2024/02/10 06:32:05;;;;;;;13.57;7.10;;;;;;;;;;5024306;28;20029;-59
2024/02/10 06:34:30;;;;;;;15.18;6.82;;;;;;;;;;5028508;28;20009;-59
2024/02/10 06:36:57;;;;;;;14.82;7.65;;;;;;;;;;5032779;28;20037;-59
2024/02/10 06:39:22;;;;;;;21.27;8.90;;;;;;;;;;5031766;28;20401;-60
2024/02/10 06:41:50;;;;;;;16.00;7.67;;;;;;;;;;5032797;28;20482;-60
2024/02/10 06:44:15;;;;;;;15.13;6.78;;;;;;;;;;5031605;28;20029;-59
2024/02/10 06:46:40;;;;;;;16.27;7.38;;;;;;;;;;5027831;28;20021;-59
2024/02/10 06:49:06;;;;;;;20.33;9.15;;;;;;;;;;5031733;28;20043;-58
2024/02/10 06:51:32;;;;;;;16.20;8.27;;;;;;;;;;5031731;28;20493;-59
2024/02/10 06:53:58;;;;;;;15.18;7.55;;;;;;;;;;5024940;28;20096;-59
2024/02/10 06:56:24;;;;;;;15.25;7.88;;;;;;;;;;5022433;28;20508;-59
2024/02/10 06:58:51;;;;;;;17.67;7.88;;;;;;;;;;5026597;28;20430;-58
2024/02/10 07:01:17;;;;;;;16.35;8.07;;;;;;;;;;5031777;28;20025;-58
2024/02/10 07:03:45;;;;;;;15.80;8.55;;;;;;;;;;5023741;28;20022;-59
2024/02/10 07:06:11;;;;;;;16.08;7.82;;;;;;;;;;5028709;28;20029;-58
2024/02/10 07:08:40;;;;;;;13.98;7.60;;;;;;;;;;5028317;28;20599;-58
2024/02/10 07:11:05;;;;;;;14.88;7.97;;;;;;;;;;5024008;28;20013;-59
2024/02/10 07:13:31;;;;;;;16.20;8.27;;;;;;;;;;5029326;28;20451;-60
2024/02/10 07:15:56;;;;;;;17.92;8.57;;;;;;;;;;5022795;28;20034;-59
2024/02/10 07:18:21;;;;;;;18.00;8.27;;;;;;;;;;5029767;28;20075;-59
2024/02/10 07:20:46;;;;;;;14.37;8.03;;;;;;;;;;5030035;28;20451;-58
2024/02/10 07:23:12;;;;;;;15.88;7.97;;;;;;;;;;5033933;28;20033;-59
2024/02/10 07:25:38;;;;;;;18.52;8.35;;;;;;;;;;5028349;28;20044;-59
2024/02/10 07:28:04;;;;;;;17.00;8.43;;;;;;;;;;5023874;28;20021;-59
2024/02/10 07:30:33;;;;;;;18.55;9.40;;;;;;;;;;5027049;28;20088;-58
2024/02/10 07:33:08;;;;;;;19.73;8.88;;;;;;;;;;5019701;28;20052;-59
2024/02/10 07:35:33;;;;;;;17.20;8.23;;;;;;;;;;5021943;28;20050;-58
2024/02/10 07:37:58;;;;;;;18.80;9.03;;;;;;;;;;5028450;28;20068;-59
2024/02/10 07:40:24;;;;;;;18.77;8.90;;;;;;;;;;5033893;28;20024;-58
2024/02/10 07:42:51;;;;;;;17.17;8.90;;;;;;;;;;5032309;28;20052;-59
2024/02/10 07:45:17;;;;;;;19.83;9.55;;;;;;;;;;5028409;28;20038;-59
2024/02/10 07:47:44;;;;;;;21.30;9.20;;;;;;;;;;5019727;28;20025;-59
2024/02/10 07:50:11;;;;;;;18.80;8.45;;;;;;;;;;5026348;28;20033;-58
2024/02/10 07:52:40;;;;;;;17.10;7.93;;;;;;;;;;5029811;28;20844;-59
2024/02/10 07:55:09;;;;;;;18.00;9.13;;;;;;;;;;5025603;28;20025;-58
2024/02/10 07:57:36;;;;;;;16.80;8.73;;;;;;;;;;5028030;28;20032;-59
2024/02/10 08:00:03;;;;;;;16.88;8.82;;;;;;;;;;5032388;28;20079;-58
2024/02/10 08:02:28;;;;;;;20.15;9.27;;;;;;;;;;5022974;28;20025;-58
2024/02/10 08:04:56;;;;;;;20.08;9.32;;;;;;;;;;5039570;28;20044;-58
2024/02/10 08:07:21;;;;;;;17.55;8.77;;;;;;;;;;5023635;28;20456;-58
2024/02/10 08:09:47;;;;;;;17.80;8.85;;;;;;;;;;5025036;28;20032;-59
2024/02/10 08:12:23;;;;;;;17.90;7.97;;;;;;;;;;5028501;28;20147;-58
2024/02/10 08:14:50;;;;;;;15.00;8.15;;;;;;;;;;5016320;28;20029;-59
2024/02/10 08:17:15;;;;;;;20.10;8.30;;;;;;;;;;5025522;28;20382;-58
2024/02/10 08:19:40;;;;;;;21.65;9.50;;;;;;;;;;5028311;28;20159;-59
2024/02/10 08:22:11;;;;;;;20.63;9.48;;;;;;;;;;5024926;28;20103;-58
2024/02/10 08:24:38;;;;;;;16.58;8.57;;;;;;;;;;5033159;28;20040;-59
2024/02/10 08:27:04;;;;;;;18.90;8.95;;;;;;;;;;5031372;28;20029;-59
2024/02/10 08:29:33;;;;;;;16.40;8.57;;;;;;;;;;5034118;28;20021;-58
2024/02/10 08:32:01;;;;;;;16.35;7.93;;;;;;;;;;5028242;28;20071;-58
2024/02/10 08:34:27;;;;;;;16.58;7.63;;;;;;;;;;5012393;28;20033;-60
2024/02/10 08:36:53;;;;;;;16.95;7.57;;;;;;;;;;5012186;28;20017;-59
2024/02/10 08:39:18;;;;;;;12.63;6.45;;;;;;;;;;5030785;28;20382;-59
2024/02/10 08:41:43;;;;;;;12.88;6.50;;;;;;;;;;5034033;28;20025;-59
2024/02/10 08:44:08;;;;;;;14.98;7.03;;;;;;;;;;5032109;28;20032;-59
2024/02/10 08:46:36;;;;;;;13.98;7.07;;;;;;;;;;5031644;28;20482;-59
2024/02/10 08:49:01;;;;;;;12.13;5.90;;;;;;;;;;5031620;28;20024;-59
2024/02/10 08:51:27;;;;;;;11.93;5.50;;;;;;;;;;5031394;28;20025;-59
2024/02/10 08:53:54;;;;;;;11.15;6.05;;;;;;;;;;5025495;28;20010;-59
2024/02/10 08:56:20;;;;;;;;;;;;;;;;;;5012107;28;20034;-60
2024/02/10 08:58:45;;;;;;;9.45;4.80;;;;;;;;;;5011746;28;19951;-60
2024/02/10 09:01:15;;;;;;;10.95;5.47;;;;;;;;;;5011329;28;20094;-59
2024/02/10 09:03:49;;;;;;;12.85;5.60;;;;;;;;;;5011141;28;20016;-59
2024/02/10 09:06:15;;;;;;;13.15;6.10;;;;;;;;;;5011632;28;20062;-59
2024/02/10 09:08:42;;;;;;;9.90;5.25;;;;;;;;;;5011421;28;20057;-59
2024/02/10 09:11:07;;;;;;;11.45;5.53;;;;;;;;;;5011646;28;20074;-59
2024/02/10 09:13:32;;;;;;;12.00;5.68;;;;;;;;;;5028982;28;20060;-60
2024/02/10 09:15:57;;;;;;;11.95;6.05;;;;;;;;;;5031018;28;20025;-60
2024/02/10 09:18:22;;;;;;;12.00;5.20;;;;;;;;;;5031662;28;20018;-59
2024/02/10 09:20:47;;;;;;;11.10;5.53;;;;;;;;;;5031214;28;20056;-59
2024/02/10 09:23:14;;;;;;;12.87;5.20;;;;;;;;;;5030480;28;20064;-59
2024/02/10 09:25:40;;;;;;;10.40;4.97;;;;;;;;;;5030320;28;20029;-59
2024/02/10 09:28:06;;;;;;;11.38;5.00;;;;;;;;;;5031335;28;20389;-63
2024/02/10 09:30:31;;;;;;;9.83;5.27;;;;;;;;;;5031654;28;20080;-58
2024/02/10 09:32:56;;;;;;;10.87;5.80;;;;;;;;;;5031285;28;20467;-58
2024/02/10 09:35:23;;;;;;;13.13;6.30;;;;;;;;;;5031428;28;20024;-60
2024/02/10 09:37:48;;;;;;;;;;;;;;;;;;5032304;28;20045;-60
2024/02/10 09:40:13;;;;;;;11.02;5.60;;;;;;;;;;5031215;28;20475;-61
2024/02/10 09:42:42;;;;;;;13.07;6.63;;;;;;;;;;5029718;28;20075;-60
2024/02/10 09:45:08;;;;;;;11.48;6.10;;;;;;;;;;5031163;28;20042;-59
2024/02/10 09:47:34;;;;;;;11.27;5.97;;;;;;;;;;5031106;28;20014;-59
2024/02/10 09:50:02;;;;;;;13.05;7.15;;;;;;;;;;5025945;28;20045;-60
2024/02/10 09:52:28;;;;;;;12.93;6.05;;;;;;;;;;5013715;28;20026;-59
2024/02/10 09:54:55;;;;;;;13.60;6.72;;;;;;;;;;5015153;28;20026;-59
2024/02/10 09:57:22;;;;;;;12.85;6.40;;;;;;;;;;5035250;28;20033;-58
2024/02/10 09:59:48;;;;;;;13.95;7.00;;;;;;;;;;5019951;28;20092;-58
2024/02/10 10:02:14;;;;;;;11.50;5.65;;;;;;;;;;5013471;28;20025;-58
2024/02/10 10:04:40;;;;;;;12.38;6.45;;;;;;;;;;5018031;28;20636;-59
2024/02/10 10:07:08;;;;;;;13.32;7.00;;;;;;;;;;5026373;28;20021;-58
2024/02/10 10:09:37;;;;;;;14.50;6.72;;;;;;;;;;5029914;28;20052;-59
2024/02/10 10:12:09;;;;;;;14.00;7.15;;;;;;;;;;5031634;28;20021;-58
2024/02/10 10:14:35;;;;;;;14.15;6.70;;;;;;;;;;5032791;28;20083;-59
2024/02/10 10:17:04;;;;;;;14.20;7.40;;;;;;;;;;5025270;28;20060;-59
2024/02/10 10:19:31;;;;;;;15.63;7.47;;;;;;;;;;5030098;28;20025;-58
2024/02/10 10:21:57;;;;;;;16.77;8.48;;;;;;;;;;5031469;28;20158;-58
2024/02/10 10:24:22;;;;;;;15.65;8.07;;;;;;;;;;5030718;28;20032;-59
2024/02/10 10:26:54;;;;;;;12.60;7.43;;;;;;;;;;5029983;28;20079;-58
2024/02/10 10:29:20;;;;;;;12.32;7.20;;;;;;;;;;5028874;28;20511;-60
2024/02/10 10:31:46;;;;;;;14.50;7.63;;;;;;;;;;5024695;28;20026;-58
2024/02/10 10:34:12;;;;;;;14.75;7.55;;;;;;;;;;5027041;28;20049;-59
2024/02/10 10:36:38;;;;;;;15.27;8.50;;;;;;;;;;5023756;28;20640;-60
2024/02/10 10:39:04;;;;;;;14.93;8.30;;;;;;;;;;5034505;28;20047;-59
2024/02/10 10:41:31;;;;;;;15.60;9.60;;;;;;;;;;5033222;28;20022;-58
2024/02/10 10:43:58;;;;;;;16.42;8.10;;;;;;;;;;5034262;28;20385;-61
2024/02/10 10:46:24;;;;;;;16.00;8.60;;;;;;;;;;5033027;28;20505;-60
2024/02/10 10:48:50;;;;;;;16.48;8.60;;;;;;;;;;5036987;28;20097;-58
2024/02/10 10:51:21;;;;;;;15.35;9.27;;;;;;;;;;5041553;28;20018;-60
2024/02/10 10:53:48;;;;;;;16.20;9.07;;;;;;;;;;5041800;28;20026;-61
2024/02/10 10:56:17;;;;;;;17.73;9.48;;;;;;;;;;5023072;28;20030;-59
2024/02/10 10:58:46;;;;;;;15.32;9.27;;;;;;;;;;5030054;28;20067;-58
2024/02/10 11:01:12;;;;;;;15.52;8.27;;;;;;;;;;5027407;28;20060;-58
2024/02/10 11:03:41;;;;;;;14.05;8.23;;;;;;;;;;5024113;28;20021;-58
2024/02/10 11:06:13;;;;;;;16.42;7.78;;;;;;;;;;5028092;28;20052;-58
2024/02/10 11:08:41;;;;;;;15.32;7.22;;;;;;;;;;5029396;28;20389;-58
2024/02/10 11:11:10;;;;;;;16.02;8.85;;;;;;;;;;5023038;28;20435;-57
2024/02/10 11:13:35;;;;;;;14.55;8.98;;;;;;;;;;5024393;28;20033;-58
2024/02/10 11:16:03;;;;;;;13.93;7.93;;;;;;;;;;5031309;28;20108;-57
2024/02/10 11:18:29;;;;;;;16.42;10.18;;;;;;;;;;5027401;28;20022;-57
2024/02/10 11:21:05;;;;;;;18.45;9.68;;;;;;;;;;5028975;28;20031;-58
2024/02/10 11:23:31;;;;;;;16.92;9.82;;;;;;;;;;5028038;28;20021;-57
2024/02/10 11:25:56;;;;;;;15.07;8.30;;;;;;;;;;5032310;28;20448;-58
2024/02/10 11:28:22;;;;;;;16.40;9.00;;;;;;;;;;5032718;28;20021;-57
2024/02/10 11:30:48;;;;;;;15.65;8.77;;;;;;;;;;5033084;28;20502;-58
2024/02/10 11:33:22;;;;;;;15.70;9.93;;;;;;;;;;5027735;28;20037;-59
2024/02/10 11:35:52;;;;;;;15.45;9.85;;;;;;;;;;5033572;28;20069;-57
2024/02/10 11:38:18;;;;;;;15.68;9.07;;;;;;;;;;5034125;28;20032;-58
2024/02/10 11:40:43;;;;;;;17.10;10.38;;;;;;;;;;5036586;28;20017;-59
2024/02/10 11:43:10;;;;;;;20.05;9.65;;;;;;;;;;5040918;28;20032;-58
2024/02/10 11:45:36;;;;;;;14.68;8.68;;;;;;;;;;5045952;28;20027;-59
2024/02/10 11:48:01;;;;;;;16.13;9.68;;;;;;;;;;5037149;28;20077;-59
2024/02/10 11:50:26;;;;;;;17.27;9.70;;;;;;;;;;5037931;28;20041;-59
2024/02/10 11:52:53;;;;;;;18.10;10.00;;;;;;;;;;5042346;28;20044;-58
2024/02/10 11:55:19;;;;;;;18.13;10.45;;;;;;;;;;5043116;28;20116;-59
2024/02/10 11:57:51;;;;;;;17.95;9.73;;;;;;;;;;5043850;28;20017;-58
2024/02/10 12:00:19;;;;;;;20.23;10.38;;;;;;;;;;5034568;28;20184;-59
2024/02/10 12:02:44;;;;;;;18.60;9.98;;;;;;;;;;5033166;28;20170;-58
2024/02/10 12:05:13;;;;;;;16.83;9.77;;;;;;;;;;5032734;28;20104;-58
2024/02/10 12:07:39;;;;;;;16.55;9.57;;;;;;;;;;5032416;28;20017;-59
2024/02/10 12:10:11;;;;;;;18.00;10.20;;;;;;;;;;5031369;28;20033;-58
2024/02/10 12:12:38;;;;;;;14.73;8.90;;;;;;;;;;5031622;28;20398;-57
2024/02/10 12:15:03;;;;;;;17.45;10.70;;;;;;;;;;5030631;28;20068;-58
2024/02/10 12:17:29;;;;;;;16.80;9.52;;;;;;;;;;5031279;28;20049;-58
2024/02/10 12:19:55;;;;;;;16.40;9.65;;;;;;;;;;5032069;28;20024;-59
2024/02/10 12:22:22;;;;;;;16.10;10.15;;;;;;;;;;5031852;28;20428;-60
2024/02/10 12:24:47;;;;;;;;;;;;;;;;;;5028446;28;20051;-59
2024/02/10 12:27:12;;;;;;;22.48;10.73;;;;;;;;;;5028569;28;20338;-57
2024/02/10 12:29:38;;;;;;;16.43;9.73;;;;;;;;;;5027962;28;20017;-57
2024/02/10 12:32:03;;;;;;;19.77;10.15;;;;;;;;;;5028255;28;20013;-58
2024/02/10 12:34:29;;;;;;;18.05;10.07;;;;;;;;;;5029109;28;20029;-58
2024/02/10 12:36:54;;;;;;;15.57;8.57;;;;;;;;;;5022949;28;20017;-57
2024/02/10 12:39:19;;;;;;;17.30;9.37;;;;;;;;;;5029859;28;20044;-57
2024/02/10 12:41:45;;;;;;;14.70;8.52;;;;;;;;;;5029303;28;20017;-58
2024/02/10 12:44:11;;;;;;;15.50;8.70;;;;;;;;;;5033763;28;20044;-58
2024/02/10 12:46:36;;;;;;;15.63;8.93;;;;;;;;;;5027934;28;20029;-59
2024/02/10 12:49:01;;;;;;;14.80;8.90;;;;;;;;;;5027944;28;20029;-58
2024/02/10 12:51:27;;;;;;;15.17;8.80;;;;;;;;;;5027946;28;20025;-57
2024/02/10 12:53:55;;;;;;;14.48;8.75;;;;;;;;;;5030183;28;20127;-58
2024/02/10 12:56:21;;;;;;;15.30;8.52;;;;;;;;;;5028204;28;20029;-57
2024/02/10 12:58:49;;;;;;;14.23;8.88;;;;;;;;;;5029269;28;20021;-59
2024/02/10 13:01:14;;;;;;;13.43;7.88;;;;;;;;;;5029232;28;20346;-58
2024/02/10 13:03:40;;;;;;;13.73;8.55;;;;;;;;;;5041906;28;20053;-59
2024/02/10 13:06:11;;;;;;;15.43;8.82;;;;;;;;;;5043694;28;20029;-59
2024/02/10 13:08:36;;;;;;;12.25;7.28;;;;;;;;;;5040723;28;20014;-60
2024/02/10 13:11:02;;;;;;;13.43;8.18;;;;;;;;;;5042055;28;20089;-58
2024/02/10 13:13:27;;;;;;;13.40;8.00;;;;;;;;;;5040496;28;20037;-58
2024/02/10 13:15:52;;;;;;;13.93;8.30;;;;;;;;;;5029479;28;20527;-58
2024/02/10 13:18:18;;;;;;;12.05;7.13;;;;;;;;;;5027150;28;20040;-58
2024/02/10 13:20:43;;;;;;;11.65;7.97;;;;;;;;;;5025564;28;20026;-58
2024/02/10 13:23:08;;;;;;;13.57;7.90;;;;;;;;;;5026090;28;20021;-58
2024/02/10 13:25:34;;;;;;;12.83;8.30;;;;;;;;;;5027329;28;20080;-59
2024/02/10 13:27:59;;;;;;;14.60;9.27;;;;;;;;;;5027860;28;20033;-57
2024/02/10 13:30:24;;;;;;;12.07;7.57;;;;;;;;;;5026929;28;20042;-57
2024/02/10 13:32:50;;;;;;;14.30;8.40;;;;;;;;;;5027577;28;20037;-58
2024/02/10 13:35:16;;;;;;;14.18;8.60;;;;;;;;;;5014685;28;20025;-57
2024/02/10 14:10:15;;;;;;;19.77;10.60;;;;;;;;;;5026705;28;20041;-57
2024/02/10 14:12:48;;;;;;;15.70;9.30;;;;;;;;;;5035944;28;20017;-57
2024/02/10 14:15:16;;;;;;;16.40;10.60;;;;;;;;;;5036902;28;20029;-58
2024/02/10 14:17:42;;;;;;;18.42;10.55;;;;;;;;;;5036866;28;20014;-58
2024/02/10 14:20:18;;;;;;;17.40;11.02;;;;;;;;;;5036562;28;20143;-59
2024/02/10 14:22:43;;;;;;;15.52;9.73;;;;;;;;;;5031256;28;20304;-58
2024/02/10 14:25:13;;;;;;;18.10;10.13;;;;;;;;;;5031602;28;20026;-58
2024/02/10 14:27:42;;;;;;;17.55;10.35;;;;;;;;;;5030866;28;20038;-57
2024/02/10 14:30:13;;;;;;;15.93;9.88;;;;;;;;;;5020419;28;20436;-57
2024/02/10 14:32:41;;;;;;;16.75;10.70;;;;;;;;;;5020505;28;20032;-58
2024/02/10 14:35:19;;;;;;;14.13;9.63;;;;;;;;;;5023707;28;20124;-58
2024/02/10 14:37:57;;;;;;;15.30;10.05;;;;;;;;;;5029813;28;20504;-58
2024/02/10 14:40:28;;;;;;;15.52;10.57;;;;;;;;;;5031174;28;20021;-56
2024/02/10 14:42:54;;;;;;;17.90;10.45;;;;;;;;;;5029717;28;20461;-57
2024/02/10 14:45:22;;;;;;;14.57;9.93;;;;;;;;;;5031475;28;20053;-57
2024/02/10 14:47:47;;;;;;;14.70;9.40;;;;;;;;;;5026839;28;20022;-58
2024/02/10 14:50:16;;;;;;;14.38;9.38;;;;;;;;;;5035278;28;20033;-57
2024/02/10 14:52:41;;;;;;;17.23;9.27;;;;;;;;;;5031664;28;20061;-58
2024/02/10 14:55:07;;;;;;;15.57;9.65;;;;;;;;;;5035005;28;20029;-58
2024/02/10 14:57:34;;;;;;;13.97;8.40;;;;;;;;;;5033257;28;20036;-57
2024/02/10 14:59:59;;;;;;;15.05;8.65;;;;;;;;;;5024660;28;20049;-58